Morning Clara — 9V7564 — position and weather

sailwx.info

Track history (hours):
 
Tides and Currents Weather Stations Pressure Air Temp Water Temp Dewpoint Dewpoint Depression Visibility Wind Speed Wind Dir Waves Ship Positions

Morning Clara

Last reported at 2017-Mar-17 20:33 UTC. Time now 2017-Mar-24 18:04 UTC.
Position N 02°05' E 102°08'.

Length 200 m; draft 9.5 m.

Type: Cargo ship. MMSI: 564254000.

Date/timePositionNaut miles runAvg speedWind from/ knotsBaromVisibWave heightAir tempDewpointWater temp
2017-Mar-17 20:33N 02°05' E 102°08'1817.7
2017-Mar-17 19:33N 01°54' E 102°22'1717.3
2017-Mar-17 18:33N 01°47' E 102°38'2216.4
2017-Mar-17 17:12N 01°38' E 102°58'2816.2
2017-Mar-17 15:30N 01°20' E 103°19'1414.9
2017-Mar-17 14:33N 01°12' E 103°31'1414.3
2017-Mar-17 13:33N 01°08' E 103°44'1514.6
2017-Mar-17 12:33N 01°15' E 103°58'6 6.1
2017-Mar-17 11:31N 01°18' E 104°03'0 0.0
2017-Mar-17 02:25N 01°18' E 104°03'4 4.3
2017-Mar-17 01:33N 01°17' E 104°07'8 3.5
2017-Mar-16 23:15N 01°18' E 104°15'  
2017-Mar-11 04:33N 32°39' E 124°56'1616.4
2017-Mar-11 03:33N 32°55' E 124°55'  
Track history (hours):
 
Tides and Currents Weather Stations Pressure Air Temp Water Temp Dewpoint Dewpoint Depression Visibility Wind Speed Wind Dir Waves Ship Positions

Morning Clara

Last reported at 2017-Mar-17 20:33 UTC. Time now 2017-Mar-24 18:04 UTC.
Position N 02°05' E 102°08'.

Length 200 m; draft 9.5 m.

Type: Cargo ship. MMSI: 564254000.

Date/timePositionNaut miles runAvg speedWind from/ knotsBaromVisibWave heightAir tempDewpointWater temp
2017-Mar-17 20:33N 02°05' E 102°08'1817.7
2017-Mar-17 19:33N 01°54' E 102°22'1717.3
2017-Mar-17 18:33N 01°47' E 102°38'2216.4
2017-Mar-17 17:12N 01°38' E 102°58'2816.2
2017-Mar-17 15:30N 01°20' E 103°19'1414.9
2017-Mar-17 14:33N 01°12' E 103°31'1414.3
2017-Mar-17 13:33N 01°08' E 103°44'1514.6
2017-Mar-17 12:33N 01°15' E 103°58'6 6.1
2017-Mar-17 11:31N 01°18' E 104°03'0 0.0
2017-Mar-17 02:25N 01°18' E 104°03'4 4.3
2017-Mar-17 01:33N 01°17' E 104°07'8 3.5
2017-Mar-16 23:15N 01°18' E 104°15'  
2017-Mar-11 04:33N 32°39' E 124°56'1616.4
2017-Mar-11 03:33N 32°55' E 124°55'  

Dump ship's entire track history